Time;durP1;ratioP1;P1;durP2;ratioP2;P2;SDS_P1;SDS_P2;PMS_P1;PMS_P2;Temp;Humidity;BMP_temperature;BMP_pressure;BME280_temperature;BME280_humidity;BME280_pressure;Samples;Min_cycle;Max_cycle;Signal;HPM_P1;HPM_P2
2023/02/14 00:02:06;;;;;;;3.17;3.00;;;2.40;99.90;;;;;;5048442;28;20198;-84
2023/02/14 00:04:32;;;;;;;10.87;5.90;;;2.50;99.90;;;;;;5032006;28;20178;-82
2023/02/14 00:06:58;;;;;;;5.60;5.17;;;2.50;99.90;;;;;;5031651;28;20186;-84
2023/02/14 00:09:24;;;;;;;13.33;4.80;;;2.50;99.90;;;;;;5031532;28;20186;-82
2023/02/14 00:11:49;;;;;;;4.00;3.10;;;2.50;99.90;;;;;;5048017;28;20627;-82
2023/02/14 00:17:03;;;;;;;6.67;5.93;;;2.30;99.90;;;;;;5048437;28;20594;-82
2023/02/14 00:19:30;;;;;;;4.63;4.37;;;2.50;99.90;;;;;;5030295;28;20260;-84
2023/02/14 00:21:56;;;;;;;12.27;4.67;;;2.60;99.90;;;;;;5047234;28;20186;-83
2023/02/14 00:24:24;;;;;;;3.83;3.17;;;2.50;99.90;;;;;;5032379;28;20239;-84
2023/02/14 00:26:51;;;;;;;12.10;4.80;;;2.30;99.90;;;;;;5051246;28;20283;-82
2023/02/14 00:29:23;;;;;;;2.23;2.13;;;2.20;99.90;;;;;;5050920;28;20265;-82
2023/02/14 00:31:49;;;;;;;2.57;2.47;;;2.00;99.90;;;;;;5069418;28;20235;-84
2023/02/14 00:34:16;;;;;;;2.17;1.97;;;1.90;99.90;;;;;;5051410;28;20185;-84
2023/02/14 00:36:43;;;;;;;6.67;3.83;;;1.90;99.90;;;;;;5069082;28;20568;-82
2023/02/14 00:39:11;;;;;;;2.40;2.30;;;1.80;99.90;;;;;;5050984;28;20258;-82
2023/02/14 00:41:38;;;;;;;3.27;2.53;;;1.80;99.90;;;;;;5068949;28;20637;-82
2023/02/14 00:44:04;;;;;;;4.83;2.70;;;1.80;99.90;;;;;;5069348;28;20666;-85
2023/02/14 00:46:30;;;;;;;3.30;3.07;;;1.70;99.90;;;;;;5051129;28;20627;-82
2023/02/14 00:48:56;;;;;;;2.33;2.23;;;1.80;99.90;;;;;;5051133;28;20230;-82
2023/02/14 00:51:22;;;;;;;9.10;3.57;;;1.70;99.90;;;;;;5068858;28;20185;-83
2023/02/14 00:53:49;;;;;;;6.80;3.03;;;1.70;99.90;;;;;;5034443;28;20174;-82
2023/02/14 00:56:15;;;;;;;3.40;3.10;;;1.70;99.90;;;;;;5068650;28;20764;-86
2023/02/14 00:58:41;;;;;;;2.37;2.27;;;1.80;99.90;;;;;;5034632;28;20213;-82
2023/02/14 01:01:08;;;;;;;3.33;2.83;;;1.80;99.90;;;;;;5069092;28;20643;-83
2023/02/14 01:03:34;;;;;;;3.23;3.03;;;1.90;99.90;;;;;;5054001;28;20177;-85
2023/02/14 01:06:00;;;;;;;3.30;2.30;;;1.80;99.90;;;;;;5072943;28;20177;-82
2023/02/14 01:08:26;;;;;;;2.83;2.67;;;1.80;99.90;;;;;;5055128;28;20224;-83
2023/02/14 01:10:52;;;;;;;2.87;2.67;;;1.80;99.90;;;;;;5055323;28;20315;-82
2023/02/14 01:13:19;;;;;;;2.70;2.47;;;1.90;99.90;;;;;;5073011;28;20634;-82
2023/02/14 01:15:47;;;;;;;2.80;2.13;;;1.90;99.90;;;;;;5072700;28;20207;-83
2023/02/14 01:18:14;;;;;;;2.43;2.17;;;1.90;99.90;;;;;;5072645;28;20212;-82
2023/02/14 01:20:40;;;;;;;3.30;1.63;;;1.70;99.90;;;;;;5055061;28;20177;-82
2023/02/14 01:23:06;;;;;;;2.90;2.63;;;1.70;99.90;;;;;;5054735;28;20197;-81
2023/02/14 01:25:32;;;;;;;2.57;2.43;;;1.70;99.90;;;;;;5037852;28;20257;-84
2023/02/14 01:27:58;;;;;;;3.10;2.97;;;1.70;99.90;;;;;;5055197;28;20231;-83
2023/02/14 01:30:24;;;;;;;2.83;2.60;;;1.70;99.90;;;;;;5038116;28;20204;-83
2023/02/14 01:32:50;;;;;;;6.07;2.53;;;1.80;99.90;;;;;;5055033;28;20189;-84
2023/02/14 01:35:16;;;;;;;5.20;4.70;;;1.80;99.90;;;;;;5054702;28;20178;-82
2023/02/14 01:37:41;;;;;;;3.10;2.70;;;1.80;99.90;;;;;;5038424;28;20173;-84
2023/02/14 01:40:09;;;;;;;3.00;2.80;;;1.80;99.90;;;;;;5022009;28;20189;-83
2023/02/14 01:42:36;;;;;;;2.47;2.30;;;1.70;99.90;;;;;;5054688;28;20170;-82
2023/02/14 01:45:18;;;;;;;2.57;2.37;;;1.70;99.90;;;;;;5072204;28;20234;-82
2023/02/14 01:47:48;;;;;;;1.50;1.43;;;1.60;99.90;;;;;;5072372;28;20695;-82
2023/02/14 01:50:21;;;;;;;1.83;1.73;;;1.70;99.90;;;;;;5072443;28;20185;-82
2023/02/14 01:52:55;;;;;;;1.83;1.73;;;1.60;99.90;;;;;;5054481;28;20170;-85
2023/02/14 01:55:29;;;;;;;1.53;1.43;;;1.60;99.90;;;;;;5072037;28;20261;-83
2023/02/14 01:58:03;;;;;;;2.87;2.67;;;1.60;99.90;;;;;;5054390;28;20197;-82
2023/02/14 02:03:16;;;;;;;2.80;2.63;;;1.50;99.90;;;;;;5057101;28;20166;-85
2023/02/14 02:05:47;;;;;;;1.93;1.90;;;1.50;99.90;;;;;;5054213;28;20181;-85
2023/02/14 02:08:13;;;;;;;4.43;3.73;;;1.60;99.90;;;;;;5054345;28;20170;-84
2023/02/14 02:10:39;;;;;;;2.00;1.90;;;1.80;99.90;;;;;;5037511;28;20653;-82
2023/02/14 02:13:07;;;;;;;2.10;1.87;;;1.70;99.90;;;;;;5054028;28;20182;-82
2023/02/14 02:15:47;;;;;;;3.10;2.13;;;1.70;99.90;;;;;;5052959;28;20660;-83
2023/02/14 02:18:32;;;;;;;2.73;2.53;;;1.70;99.90;;;;;;5071720;28;20201;-83
2023/02/14 02:21:31;;;;;;;2.53;2.33;;;1.70;99.90;;;;;;5054097;28;20197;-84
2023/02/14 02:24:29;;;;;;;3.53;2.53;;;1.70;99.90;;;;;;5071878;28;20299;-84
2023/02/14 02:27:14;;;;;;;4.23;2.10;;;1.60;99.90;;;;;;5072106;28;20272;-83
2023/02/14 02:30:23;;;;;;;4.93;2.13;;;1.60;99.90;;;;;;5054265;28;20264;-82
2023/02/14 02:32:58;;;;;;;5.27;2.40;;;1.50;99.90;;;;;;5054509;28;20169;-82
2023/02/14 02:35:49;;;;;;;2.83;2.63;;;1.40;99.90;;;;;;5071648;28;20193;-82
2023/02/14 02:38:43;;;;;;;4.73;2.50;;;1.30;99.90;;;;;;5071538;28;20201;-82
2023/02/14 02:41:31;;;;;;;5.80;3.87;;;1.30;99.90;;;;;;5053871;28;20189;-82
2023/02/14 02:44:18;;;;;;;2.47;2.30;;;1.40;99.90;;;;;;5071543;28;20565;-83
2023/02/14 02:47:17;;;;;;;4.47;3.20;;;1.30;99.90;;;;;;5053558;28;20178;-82
2023/02/14 02:53:04;;;;;;;2.53;2.37;;;1.20;99.90;;;;;;5071455;28;20180;-82
2023/02/14 02:58:58;;;;;;;5.30;3.17;;;1.00;99.90;;;;;;5070916;28;20341;-81
2023/02/14 03:01:29;;;;;;;2.60;2.20;;;1.00;99.90;;;;;;5053543;28;20231;-83
2023/02/14 03:06:46;;;;;;;5.97;3.40;;;1.00;99.90;;;;;;5070418;28;20185;-82
2023/02/14 03:09:32;;;;;;;2.83;1.77;;;0.90;99.90;;;;;;5052832;28;20185;-82
2023/02/14 03:12:13;;;;;;;2.30;2.10;;;0.90;99.90;;;;;;5070694;28;20337;-83
2023/02/14 03:14:44;;;;;;;2.37;2.27;;;0.80;99.90;;;;;;5052490;28;20727;-82
2023/02/14 03:17:41;;;;;;;3.43;3.30;;;0.90;99.90;;;;;;5052731;28;20195;-82
2023/02/14 03:20:24;;;;;;;2.00;1.90;;;0.90;99.90;;;;;;5020205;28;20197;-84
2023/02/14 03:23:21;;;;;;;2.30;2.20;;;0.90;99.90;;;;;;5070503;28;20322;-85
2023/02/14 03:26:26;;;;;;;1.57;1.57;;;0.90;99.90;;;;;;5070263;28;20256;-83
2023/02/14 03:29:15;;;;;;;2.93;2.73;;;0.90;99.90;;;;;;5070173;28;20772;-81
2023/02/14 03:31:59;;;;;;;3.17;2.60;;;0.90;99.90;;;;;;5052338;28;20173;-82
2023/02/14 03:34:44;;;;;;;3.03;2.80;;;1.00;99.90;;;;;;5052106;28;20268;-84
2023/02/14 03:38:14;;;;;;;3.70;3.50;;;0.90;99.90;;;;;;5070331;28;20169;-81
2023/02/14 03:40:53;;;;;;;3.77;3.33;;;0.90;99.90;;;;;;5011133;28;20248;-82
2023/02/14 03:43:28;;;;;;;2.17;1.87;;;0.90;99.90;;;;;;5047298;28;20209;-81
2023/02/14 03:46:02;;;;;;;4.67;2.83;;;0.90;99.90;;;;;;5070173;28;20540;-81
2023/02/14 03:48:29;;;;;;;2.93;2.73;;;0.90;99.90;;;;;;5051709;28;20176;-83
2023/02/14 03:50:57;;;;;;;8.13;3.13;;;1.00;99.90;;;;;;5051944;28;20193;-83
2023/02/14 03:53:26;;;;;;;4.23;3.93;;;1.00;99.90;;;;;;5051950;28;20205;-82
2023/02/14 03:55:58;;;;;;;3.27;2.87;;;1.00;99.90;;;;;;5052068;28;20306;-83
2023/02/14 03:58:35;;;;;;;1.70;1.60;;;0.90;99.90;;;;;;5069623;28;20801;-82
2023/02/14 04:01:14;;;;;;;3.90;1.80;;;1.00;99.90;;;;;;5052175;28;20165;-82
2023/02/14 04:03:41;;;;;;;3.17;3.00;;;1.00;99.90;;;;;;5051419;28;20234;-82
2023/02/14 04:06:07;;;;;;;8.33;4.40;;;0.90;99.90;;;;;;5069871;28;20178;-82
2023/02/14 04:08:33;;;;;;;8.67;3.80;;;1.00;99.90;;;;;;5069396;28;20326;-82
2023/02/14 04:11:01;;;;;;;4.93;3.47;;;1.00;99.90;;;;;;5068922;28;20190;-82
2023/02/14 04:13:27;;;;;;;3.40;3.07;;;1.00;99.90;;;;;;5051097;28;20181;-84
2023/02/14 04:15:53;;;;;;;3.33;3.03;;;1.10;99.90;;;;;;5051009;28;20188;-82
2023/02/14 04:21:05;;;;;;;5.30;2.67;;;1.00;99.90;;;;;;5053881;28;20170;-82
2023/02/14 04:23:30;;;;;;;2.77;2.60;;;1.10;99.90;;;;;;5034357;28;20275;-82
2023/02/14 04:25:56;;;;;;;7.17;4.33;;;1.00;99.90;;;;;;5034142;28;20287;-82
2023/02/14 04:28:22;;;;;;;2.77;2.57;;;1.00;99.90;;;;;;5034561;28;20187;-82
2023/02/14 04:30:48;;;;;;;4.90;3.47;;;0.90;99.90;;;;;;5050901;28;20657;-83
2023/02/14 04:33:13;;;;;;;3.97;3.73;;;0.90;99.90;;;;;;5034073;28;20181;-83
2023/02/14 04:35:39;;;;;;;5.30;3.93;;;0.80;99.90;;;;;;5050918;28;20177;-84
2023/02/14 04:38:05;;;;;;;2.97;2.83;;;1.00;99.90;;;;;;5034278;28;20730;-81
2023/02/14 04:40:31;;;;;;;7.10;4.70;;;1.10;99.90;;;;;;5034416;28;20193;-82
2023/02/14 04:42:56;;;;;;;3.73;3.20;;;1.00;99.90;;;;;;5051052;28;20227;-84
2023/02/14 04:45:22;;;;;;;10.17;3.67;;;1.10;99.90;;;;;;5051019;28;20273;-82
2023/02/14 04:47:48;;;;;;;2.77;2.57;;;1.10;99.90;;;;;;5050678;28;20174;-82
2023/02/14 04:50:14;;;;;;;4.07;3.77;;;1.00;99.90;;;;;;5034243;28;20177;-82
2023/02/14 04:52:40;;;;;;;5.43;3.90;;;1.00;99.90;;;;;;5033808;28;20204;-82
2023/02/14 04:55:06;;;;;;;3.03;2.83;;;1.00;99.90;;;;;;5050626;28;20273;-83
2023/02/14 04:57:32;;;;;;;5.57;4.93;;;0.90;99.90;;;;;;5050860;28;20777;-81
2023/02/14 04:59:58;;;;;;;2.13;1.60;;;0.80;99.90;;;;;;5033998;28;20231;-83
2023/02/14 05:02:24;;;;;;;1.30;1.00;;;0.80;99.90;;;;;;5050714;28;20306;-81
2023/02/14 05:04:49;;;;;;;1.83;1.73;;;0.80;99.90;;;;;;5068250;28;20184;-82
2023/02/14 05:07:15;;;;;;;2.93;2.73;;;0.80;99.90;;;;;;5034317;28;20177;-83
2023/02/14 05:09:41;;;;;;;2.80;2.70;;;0.90;99.90;;;;;;5034481;28;20177;-83
2023/02/14 05:12:07;;;;;;;3.00;2.80;;;0.70;99.90;;;;;;5034608;28;20181;-83
2023/02/14 05:14:32;;;;;;;2.27;2.17;;;0.60;99.90;;;;;;5034561;28;20197;-82
2023/02/14 05:16:58;;;;;;;2.30;2.20;;;0.50;99.90;;;;;;5050799;28;20357;-82
2023/02/14 05:19:24;;;;;;;2.00;1.90;;;0.50;99.90;;;;;;5068676;28;20213;-82
2023/02/14 05:21:49;;;;;;;2.70;2.53;;;0.40;99.90;;;;;;5050758;28;20204;-83
2023/02/14 05:24:16;;;;;;;4.97;3.60;;;0.30;99.90;;;;;;5050989;28;20526;-83
2023/02/14 05:26:42;;;;;;;4.10;2.27;;;0.40;99.90;;;;;;5050747;28;20189;-82
2023/02/14 05:29:08;;;;;;;2.17;2.00;;;0.30;99.90;;;;;;5034444;28;20182;-82
2023/02/14 05:31:33;;;;;;;3.83;2.60;;;0.40;99.90;;;;;;5050555;28;20178;-84
2023/02/14 05:33:59;;;;;;;2.27;2.17;;;0.50;99.90;;;;;;5033848;28;20185;-83
2023/02/14 05:36:25;;;;;;;1.93;1.83;;;0.60;99.90;;;;;;5033994;28;20307;-82
2023/02/14 05:38:51;;;;;;;2.60;2.50;;;0.50;99.90;;;;;;5050516;28;20841;-82
2023/02/14 05:41:17;;;;;;;3.57;2.60;;;0.60;99.90;;;;;;5034050;28;20763;-82
2023/02/14 05:43:42;;;;;;;4.20;2.80;;;0.70;99.90;;;;;;5068424;28;20182;-83
2023/02/14 05:46:08;;;;;;;2.47;2.27;;;0.70;99.90;;;;;;5034066;28;20205;-83
2023/02/14 05:48:34;;;;;;;1.90;1.80;;;0.70;99.90;;;;;;5034050;28;20696;-83
2023/02/14 05:51:08;;;;;;;2.47;2.37;;;0.70;99.90;;;;;;5036980;28;20269;-81
2023/02/14 05:53:34;;;;;;;2.17;2.07;;;0.70;99.90;;;;;;5053698;28;20742;-83
2023/02/14 05:56:00;;;;;;;2.70;2.33;;;0.60;99.90;;;;;;5071951;28;20174;-81
2023/02/14 05:58:26;;;;;;;3.03;2.77;;;0.60;99.90;;;;;;5053874;28;20228;-82
2023/02/14 06:00:52;;;;;;;2.43;2.30;;;0.70;99.90;;;;;;5053843;28;20212;-82
2023/02/14 06:03:18;;;;;;;4.10;3.80;;;0.70;99.90;;;;;;5053869;28;20181;-82
2023/02/14 06:05:43;;;;;;;2.43;2.17;;;0.80;99.90;;;;;;5037467;28;20735;-83
2023/02/14 06:08:09;;;;;;;6.00;4.10;;;0.80;99.90;;;;;;5053850;28;20191;-81
2023/02/14 06:10:35;;;;;;;2.93;2.73;;;0.70;99.90;;;;;;5052958;28;20692;-82
2023/02/14 06:13:01;;;;;;;3.40;2.90;;;0.60;99.90;;;;;;5052992;28;20639;-83
2023/02/14 06:15:26;;;;;;;2.17;2.07;;;0.60;99.90;;;;;;5036562;28;20185;-81
2023/02/14 06:17:54;;;;;;;2.63;2.53;;;0.50;99.90;;;;;;5031144;28;20317;-84
2023/02/14 06:20:21;;;;;;;1.23;1.17;;;0.50;99.90;;;;;;5037269;28;20188;-81
2023/02/14 06:22:47;;;;;;;3.53;3.23;;;0.40;99.90;;;;;;5037016;28;20215;-82
2023/02/14 06:25:13;;;;;;;4.97;2.70;;;0.30;99.90;;;;;;5029876;28;20234;-82
2023/02/14 06:27:39;;;;;;;1.43;1.33;;;0.30;99.90;;;;;;5032334;28;20186;-83
2023/02/14 06:30:05;;;;;;;5.13;1.60;;;0.20;99.90;;;;;;5049315;28;20197;-81
2023/02/14 06:32:31;;;;;;;1.60;1.37;;;0.20;99.90;;;;;;5033351;28;20273;-83
2023/02/14 06:34:59;;;;;;;1.03;1.03;;;0.20;99.90;;;;;;5032683;28;20269;-81
2023/02/14 06:37:25;;;;;;;1.77;0.97;;;0.20;99.90;;;;;;5049417;28;20205;-82
2023/02/14 06:39:51;;;;;;;1.60;1.60;;;0.30;99.90;;;;;;5032380;28;20795;-83
2023/02/14 06:42:16;;;;;;;2.50;2.20;;;0.30;99.90;;;;;;5016390;28;20277;-82
2023/02/14 06:44:42;;;;;;;3.40;3.10;;;0.30;99.90;;;;;;5032382;28;20265;-83
2023/02/14 06:47:08;;;;;;;1.83;1.73;;;0.30;99.90;;;;;;5048554;28;20275;-82
2023/02/14 06:49:34;;;;;;;1.57;1.47;;;0.30;99.90;;;;;;5031943;28;20186;-83
2023/02/14 06:51:59;;;;;;;2.47;2.37;;;0.30;99.90;;;;;;5031244;28;20190;-83
2023/02/14 06:54:25;;;;;;;3.37;2.60;;;0.30;99.90;;;;;;5049505;28;20181;-83
2023/02/14 06:56:51;;;;;;;2.70;2.50;;;0.30;99.90;;;;;;5015710;28;20205;-84
2023/02/14 06:59:17;;;;;;;4.40;2.47;;;0.30;99.90;;;;;;5050200;28;20293;-83
2023/02/14 07:01:42;;;;;;;3.97;3.30;;;0.40;99.90;;;;;;5049155;28;20178;-84
2023/02/14 07:04:08;;;;;;;1.67;1.60;;;0.50;99.90;;;;;;5015569;28;20621;-82
2023/02/14 07:06:35;;;;;;;2.93;2.60;;;0.50;99.90;;;;;;5048278;28;20268;-82
2023/02/14 07:09:02;;;;;;;1.60;1.60;;;0.60;99.90;;;;;;5048170;28;20182;-82
2023/02/14 07:11:28;;;;;;;1.63;1.53;;;0.60;99.90;;;;;;5048961;28;20182;-82
2023/02/14 07:13:54;;;;;;;1.60;1.57;;;0.70;99.90;;;;;;5050016;28;20265;-84
2023/02/14 07:16:19;;;;;;;2.80;1.70;;;0.60;99.90;;;;;;5032750;28;20190;-84
2023/02/14 07:18:45;;;;;;;3.80;2.97;;;0.60;99.90;;;;;;5031800;28;20626;-82
2023/02/14 07:21:11;;;;;;;2.77;2.67;;;0.50;99.90;;;;;;5048286;28;20193;-82
2023/02/14 07:23:37;;;;;;;1.47;1.37;;;0.40;99.90;;;;;;5047696;28;20757;-82
2023/02/14 07:26:02;;;;;;;2.23;2.13;;;0.40;99.90;;;;;;5030873;28;20291;-84
2023/02/14 07:28:29;;;;;;;1.53;1.43;;;0.50;99.90;;;;;;5048683;28;20753;-82
2023/02/14 07:31:01;;;;;;;1.60;1.50;;;0.50;99.90;;;;;;5048035;28;20640;-83
2023/02/14 07:33:27;;;;;;;4.07;3.67;;;0.50;99.90;;;;;;5047857;28;20170;-83
2023/02/14 07:35:52;;;;;;;3.10;2.93;;;0.50;99.90;;;;;;5049351;28;20175;-84
2023/02/14 07:38:18;;;;;;;1.93;1.83;;;0.60;99.90;;;;;;5032375;28;20221;-84
2023/02/14 07:40:44;;;;;;;2.17;1.63;;;0.70;99.90;;;;;;5048470;28;20706;-83
2023/02/14 07:43:10;;;;;;;2.03;1.93;;;0.70;99.90;;;;;;5049058;28;20706;-83
2023/02/14 07:45:35;;;;;;;2.07;1.97;;;0.70;99.90;;;;;;5048338;28;20567;-82
2023/02/14 07:48:01;;;;;;;1.60;1.50;;;0.80;99.90;;;;;;5030720;28;20251;-83
2023/02/14 07:50:28;;;;;;;3.33;3.13;;;0.80;99.90;;;;;;5047791;28;20277;-83
2023/02/14 07:52:54;;;;;;;2.77;2.67;;;0.80;99.90;;;;;;5046033;28;20170;-84
2023/02/14 07:55:23;;;;;;;0.83;0.83;;;1.00;99.90;;;;;;5048394;28;20186;-85
2023/02/14 07:57:50;;;;;;;4.13;2.27;;;1.00;99.90;;;;;;5046329;28;20174;-83
2023/02/14 08:00:16;;;;;;;2.63;2.50;;;1.00;99.90;;;;;;5047995;28;20277;-85
2023/02/14 08:02:42;;;;;;;2.57;2.37;;;1.10;99.90;;;;;;5046573;28;20185;-85
2023/02/14 08:05:08;;;;;;;2.83;2.63;;;1.20;99.90;;;;;;5046651;28;20185;-84
2023/02/14 08:07:34;;;;;;;2.23;2.03;;;1.20;99.90;;;;;;5047791;28;20182;-86
2023/02/14 08:10:00;;;;;;;3.77;3.00;;;1.30;99.90;;;;;;5046033;28;20276;-81
2023/02/14 08:17:57;;;;;;;2.83;2.73;;;1.60;99.90;;;;;;5048248;28;20232;-83
2023/02/14 08:20:23;;;;;;;0.90;0.90;;;1.70;99.90;;;;;;5030557;28;20217;-83
2023/02/14 08:22:49;;;;;;;2.87;1.73;;;1.60;99.90;;;;;;5046813;28;20186;-85
2023/02/14 08:25:15;;;;;;;2.03;1.93;;;1.80;99.90;;;;;;5032597;28;20233;-84
2023/02/14 08:27:40;;;;;;;2.30;1.40;;;1.70;99.90;;;;;;5034399;28;20586;-83
2023/02/14 08:30:07;;;;;;;4.27;3.80;;;1.90;99.90;;;;;;5050987;28;20181;-83
2023/02/14 08:32:33;;;;;;;3.60;3.33;;;2.00;99.90;;;;;;5033466;28;20680;-82
2023/02/14 08:34:59;;;;;;;4.03;3.37;;;2.10;99.90;;;;;;5067402;28;20182;-83
2023/02/14 08:37:24;;;;;;;2.37;2.27;;;2.40;99.90;;;;;;5016765;28;20630;-83
2023/02/14 08:39:50;;;;;;;2.33;2.23;;;2.80;99.90;;;;;;5032551;28;20300;-84
2023/02/14 08:42:16;;;;;;;1.83;1.73;;;2.80;99.90;;;;;;5033185;28;20181;-84
2023/02/14 08:44:41;;;;;;;4.63;3.87;;;3.00;99.90;;;;;;5032437;28;20837;-85
2023/02/14 08:47:07;;;;;;;2.97;2.77;;;3.30;99.90;;;;;;5048550;28;20173;-84
2023/02/14 08:49:33;;;;;;;2.03;1.93;;;3.20;99.90;;;;;;5049461;28;20635;-85
2023/02/14 08:51:58;;;;;;;5.50;4.97;;;3.00;99.90;;;;;;5032296;28;20188;-83
2023/02/14 08:54:24;;;;;;;2.43;2.17;;;3.20;99.90;;;;;;5033671;28;20627;-84
2023/02/14 08:56:50;;;;;;;2.30;2.20;;;3.50;99.90;;;;;;5050775;28;20280;-82
2023/02/14 08:59:16;;;;;;;2.67;2.43;;;3.70;99.90;;;;;;5033357;28;20295;-84
2023/02/14 09:01:41;;;;;;;3.83;3.53;;;3.90;99.90;;;;;;5033325;28;20181;-83
2023/02/14 09:04:07;;;;;;;4.03;3.67;;;4.10;99.90;;;;;;5049792;28;20178;-84
2023/02/14 09:06:37;;;;;;;3.80;3.57;;;4.30;99.90;;;;;;5049903;28;20623;-83
2023/02/14 09:09:03;;;;;;;8.00;5.10;;;4.50;99.90;;;;;;5068419;28;20174;-84
2023/02/14 09:11:29;;;;;;;5.33;4.83;;;4.70;99.90;;;;;;5033155;28;20741;-84
2023/02/14 09:13:55;;;;;;;4.73;4.33;;;4.90;99.90;;;;;;5016888;28;20542;-83
2023/02/14 09:16:22;;;;;;;4.43;4.17;;;5.30;99.90;;;;;;5033530;28;20189;-84
2023/02/14 09:18:48;;;;;;;5.23;4.80;;;5.30;99.90;;;;;;5050316;28;20209;-84
2023/02/14 09:21:16;;;;;;;3.77;3.33;;;5.50;99.90;;;;;;5033076;28;20414;-83
2023/02/14 09:23:42;;;;;;;7.43;5.63;;;5.40;99.90;;;;;;5051489;28;20185;-82
2023/02/14 09:26:11;;;;;;;7.67;6.97;;;5.20;99.90;;;;;;5050712;28;20307;-84
2023/02/14 09:28:37;;;;;;;12.17;5.57;;;5.20;99.90;;;;;;5052552;28;20178;-84
2023/02/14 09:31:15;;;;;;;9.57;4.40;;;5.00;99.90;;;;;;5051084;28;20654;-82
2023/02/14 09:33:42;;;;;;;7.70;6.13;;;5.30;99.90;;;;;;5051271;28;20205;-84
2023/02/14 09:36:20;;;;;;;9.70;6.53;;;5.40;99.90;;;;;;5051343;28;20178;-84
2023/02/14 09:38:46;;;;;;;4.67;4.37;;;5.50;99.90;;;;;;5050990;28;20198;-85
2023/02/14 09:41:24;;;;;;;11.67;5.23;;;5.40;99.90;;;;;;5050142;28;20557;-82
2023/02/14 09:44:04;;;;;;;9.03;7.43;;;5.50;99.90;;;;;;5051756;28;20174;-84
2023/02/14 09:46:41;;;;;;;6.33;5.00;;;5.70;99.90;;;;;;5051642;28;20227;-84
2023/02/14 09:49:13;;;;;;;5.73;4.80;;;5.80;99.90;;;;;;5052742;28;20273;-85
2023/02/14 09:51:44;;;;;;;6.13;5.17;;;6.00;99.90;;;;;;5050001;28;20693;-85
2023/02/14 09:54:13;;;;;;;4.90;4.50;;;6.00;99.90;;;;;;5052087;28;20170;-85
2023/02/14 09:56:57;;;;;;;8.40;6.73;;;5.90;99.90;;;;;;5052380;28;20635;-83
2023/02/14 09:59:29;;;;;;;6.93;5.47;;;6.00;99.90;;;;;;5051504;28;20202;-86
2023/02/14 10:02:19;;;;;;;7.10;6.47;;;6.10;99.90;;;;;;5050601;28;20232;-84
2023/02/14 10:05:05;;;;;;;10.23;9.20;;;6.40;99.90;;;;;;5050434;28;20182;-84
2023/02/14 10:08:01;;;;;;;10.67;7.23;;;6.70;99.90;;;;;;5050730;28;20178;-84
2023/02/14 10:10:33;;;;;;;11.53;7.00;;;6.90;99.90;;;;;;5031897;28;20186;-83
2023/02/14 10:13:14;;;;;;;7.07;5.97;;;7.00;99.90;;;;;;5049576;28;20635;-85
2023/02/14 10:15:46;;;;;;;9.70;6.13;;;7.10;99.90;;;;;;5051182;28;20548;-80
2023/02/14 10:18:41;;;;;;;4.87;4.43;;;7.20;99.90;;;;;;5050930;28;20218;-84
2023/02/14 10:21:14;;;;;;;9.70;6.93;;;7.10;99.90;;;;;;5045556;28;20204;-87
2023/02/14 10:23:45;;;;;;;6.90;6.30;;;7.20;99.90;;;;;;5034726;28;20193;-82
2023/02/14 10:26:26;;;;;;;9.77;7.67;;;7.40;99.90;;;;;;5050252;28;20222;-84
2023/02/14 10:28:53;;;;;;;13.60;10.33;;;7.60;99.90;;;;;;5050135;28;20168;-85
2023/02/14 10:31:27;;;;;;;10.90;6.53;;;7.70;99.90;;;;;;5034276;28;20640;-84
2023/02/14 10:33:59;;;;;;;7.50;6.47;;;7.80;99.90;;;;;;5049760;28;20161;-84
2023/02/14 10:36:31;;;;;;;13.00;10.50;;;7.80;99.90;;;;;;5049329;28;20178;-84
2023/02/14 10:39:11;;;;;;;17.97;7.77;;;8.00;99.90;;;;;;5049309;28;20225;-86
2023/02/14 10:42:16;;;;;;;11.20;8.23;;;8.20;99.90;;;;;;5050623;28;20265;-84
2023/02/14 10:44:47;;;;;;;12.17;5.63;;;8.30;99.90;;;;;;5049688;28;20209;-83
2023/02/14 10:47:39;;;;;;;11.60;10.40;;;8.50;99.90;;;;;;5050914;28;20194;-83
2023/02/14 10:50:37;;;;;;;11.30;7.13;;;8.60;99.90;;;;;;5049745;28;20285;-84
2023/02/14 10:53:24;;;;;;;21.30;11.63;;;8.60;99.90;;;;;;5049780;28;20170;-84
2023/02/14 10:55:58;;;;;;;13.47;9.43;;;8.70;99.90;;;;;;5051527;28;20220;-83
2023/02/14 10:58:27;;;;;;;11.70;8.03;;;8.80;99.90;;;;;;5049740;28;20216;-83
2023/02/14 11:01:19;;;;;;;16.27;11.57;;;9.00;99.90;;;;;;5050158;28;20265;-83
2023/02/14 11:04:02;;;;;;;9.87;9.00;;;9.30;99.90;;;;;;5046514;28;20251;-85
2023/02/14 11:06:29;;;;;;;14.80;11.43;;;9.40;99.90;;;;;;5049135;28;20174;-82
2023/02/14 11:08:55;;;;;;;15.60;11.40;;;9.60;99.90;;;;;;5049403;28;20552;-82
2023/02/14 11:11:30;;;;;;;15.83;11.23;;;9.70;99.90;;;;;;5032352;28;20178;-84
2023/02/14 11:13:56;;;;;;;18.80;11.07;;;9.90;99.90;;;;;;5049786;28;20173;-83
2023/02/14 11:16:34;;;;;;;20.27;13.67;;;10.00;99.90;;;;;;5031826;28;20583;-84
2023/02/14 11:19:14;;;;;;;20.57;11.13;;;10.30;99.90;;;;;;5050808;28;20289;-84
2023/02/14 11:21:43;;;;;;;16.20;12.13;;;10.70;99.90;;;;;;5050793;28;20774;-84
2023/02/14 11:24:33;;;;;;;16.03;11.60;;;11.30;99.90;;;;;;5049293;28;20189;-83
2023/02/14 11:27:01;;;;;;;25.23;14.97;;;11.70;99.90;;;;;;5064621;28;20235;-83
2023/02/14 11:29:41;;;;;;;28.63;15.27;;;12.20;99.90;;;;;;5070228;28;20178;-84
2023/02/14 11:32:22;;;;;;;28.90;18.27;;;12.80;99.90;;;;;;5070440;28;20176;-85
2023/02/14 11:35:15;;;;;;;40.40;23.77;;;14.10;99.90;;;;;;5052522;28;20180;-85
2023/02/14 11:37:55;;;;;;;49.00;23.87;;;14.70;99.90;;;;;;5052729;28;20569;-84
2023/02/14 11:40:39;;;;;;;30.40;19.40;;;14.70;99.90;;;;;;5070060;28;20265;-84
2023/02/14 11:43:11;;;;;;;32.97;16.53;;;14.40;99.90;;;;;;5051904;28;20169;-84
2023/02/14 11:45:40;;;;;;;25.90;16.20;;;14.70;99.90;;;;;;5069509;28;20193;-85
2023/02/14 11:48:22;;;;;;;17.90;12.10;;;15.20;99.90;;;;;;5051250;28;20185;-85
2023/02/14 11:51:09;;;;;;;23.53;14.30;;;14.80;99.90;;;;;;5069599;28;20162;-85
2023/02/14 11:53:47;;;;;;;21.90;11.40;;;15.50;99.90;;;;;;5051099;28;20193;-83
2023/02/14 11:56:15;;;;;;;23.43;12.60;;;16.20;99.90;;;;;;5051535;28;20269;-84
2023/02/14 11:58:50;;;;;;;25.57;12.50;;;16.20;99.90;;;;;;5018183;28;20663;-83
2023/02/14 12:01:29;;;;;;;23.13;13.70;;;15.30;99.90;;;;;;5051724;28;20173;-84
2023/02/14 12:04:00;;;;;;;25.00;12.17;;;15.80;99.90;;;;;;5052016;28;20184;-85
2023/02/14 12:06:30;;;;;;;25.27;13.10;;;16.00;99.90;;;;;;5051164;28;20161;-84
2023/02/14 12:09:20;;;;;;;25.83;13.40;;;16.20;99.90;;;;;;5050559;28;20182;-86
2023/02/14 12:12:14;;;;;;;26.73;13.03;;;16.50;99.90;;;;;;5049978;28;20181;-84
2023/02/14 12:14:40;;;;;;;24.17;12.10;;;16.70;99.90;;;;;;5069104;28;20169;-83
2023/02/14 12:17:32;;;;;;;23.07;13.20;;;16.80;99.90;;;;;;5050797;28;20165;-83
2023/02/14 12:20:22;;;;;;;26.10;12.77;;;16.90;99.90;;;;;;5068098;28;20202;-83
2023/02/14 12:23:01;;;;;;;25.73;12.70;;;17.10;99.90;;;;;;5050723;28;20189;-84
2023/02/14 12:26:00;;;;;;;25.67;13.60;;;16.30;99.90;;;;;;5067145;28;20170;-82
2023/02/14 12:28:42;;;;;;;22.20;13.37;;;16.20;99.90;;;;;;5029455;28;20209;-83
2023/02/14 12:31:10;;;;;;;25.30;11.67;;;16.30;99.90;;;;;;5050099;28;20744;-85
2023/02/14 12:33:38;;;;;;;17.77;10.53;;;15.90;99.90;;;;;;5067776;28;20345;-84
2023/02/14 12:36:32;;;;;;;20.57;13.13;;;15.80;99.90;;;;;;5067658;28;20272;-87
2023/02/14 12:39:19;;;;;;;26.43;12.00;;;15.20;99.90;;;;;;5068648;28;20249;-85
2023/02/14 12:41:54;;;;;;;23.53;13.80;;;15.00;99.90;;;;;;5068125;28;20174;-84
2023/02/14 12:44:27;;;;;;;18.47;10.80;;;14.30;99.90;;;;;;5066929;28;20169;-86
2023/02/14 12:47:07;;;;;;;26.67;12.00;;;14.30;99.90;;;;;;5067247;28;20166;-85
2023/02/14 12:49:48;;;;;;;21.07;12.50;;;14.30;99.90;;;;;;5064333;28;20180;-84
2023/02/14 12:52:25;;;;;;;17.50;11.43;;;14.10;99.90;;;;;;5066350;28;20230;-82
2023/02/14 12:55:18;;;;;;;17.47;11.33;;;14.30;99.90;;;;;;5066831;28;20170;-83
2023/02/14 12:57:51;;;;;;;20.50;12.73;;;14.50;99.90;;;;;;5067042;28;20351;-82
2023/02/14 13:00:25;;;;;;;20.67;11.03;;;14.50;99.90;;;;;;5067779;28;20220;-84
2023/02/14 13:03:06;;;;;;;25.37;12.50;;;14.60;99.90;;;;;;5050733;28;20180;-83
2023/02/14 13:05:57;;;;;;;18.80;11.37;;;13.90;99.90;;;;;;5049686;28;20169;-83
2023/02/14 13:09:00;;;;;;;17.27;10.20;;;13.70;99.90;;;;;;5064906;28;20223;-84
2023/02/14 13:12:03;;;;;;;24.23;13.27;;;13.60;99.90;;;;;;5012249;28;20185;-86
2023/02/14 13:14:51;;;;;;;16.87;11.87;;;13.30;99.90;;;;;;5049629;28;20185;-84
2023/02/14 13:17:17;;;;;;;17.10;9.50;;;13.10;99.90;;;;;;5049033;28;20219;-84
2023/02/14 13:20:01;;;;;;;13.57;9.60;;;13.10;99.90;;;;;;5049126;28;20615;-84
2023/02/14 13:22:29;;;;;;;13.73;9.37;;;13.00;99.90;;;;;;5048807;28;20173;-87
2023/02/14 13:25:18;;;;;;;24.00;12.37;;;12.90;99.90;;;;;;5066637;28;20200;-84
2023/02/14 13:27:44;;;;;;;22.30;10.93;;;13.00;99.90;;;;;;5031623;28;20236;-85
2023/02/14 13:30:30;;;;;;;20.60;11.77;;;12.80;99.90;;;;;;5034357;28;20196;-84
2023/02/14 13:33:01;;;;;;;20.53;9.80;;;12.90;99.90;;;;;;5050258;28;20474;-84
2023/02/14 13:35:28;;;;;;;26.10;10.63;;;13.00;99.90;;;;;;5068074;28;20170;-86
2023/02/14 13:38:04;;;;;;;19.60;11.20;;;12.80;99.90;;;;;;5067837;28;20173;-85
2023/02/14 13:40:30;;;;;;;19.33;10.93;;;12.60;99.90;;;;;;5050470;28;20196;-84